sensor_id;sensor_type;location;lat;lon;timestamp;pressure;altitude;pressure_sealevel;temperature;humidity
10618;BME280;5356;43.526;26.534;2024-03-29T00:00:53;98706.59;;;11.83;98.07
10618;BME280;5356;43.526;26.534;2024-03-29T00:03:19;98706.97;;;11.75;98.10
10618;BME280;5356;43.526;26.534;2024-03-29T00:05:44;98710.53;;;11.80;97.43
10618;BME280;5356;43.526;26.534;2024-03-29T00:08:10;98710.09;;;11.83;97.36
10618;BME280;5356;43.526;26.534;2024-03-29T00:10:36;98709.09;;;11.73;97.64
10618;BME280;5356;43.526;26.534;2024-03-29T00:13:03;98706.16;;;11.74;98.23
10618;BME280;5356;43.526;26.534;2024-03-29T00:15:32;98702.69;;;11.74;97.79
10618;BME280;5356;43.526;26.534;2024-03-29T00:17:57;98694.09;;;11.72;98.06
10618;BME280;5356;43.526;26.534;2024-03-29T00:20:23;98685.78;;;11.68;98.24
10618;BME280;5356;43.526;26.534;2024-03-29T00:22:49;98683.00;;;11.63;98.61
10618;BME280;5356;43.526;26.534;2024-03-29T00:25:14;98687.44;;;11.57;99.20
10618;BME280;5356;43.526;26.534;2024-03-29T00:27:40;98689.19;;;11.52;99.39
10618;BME280;5356;43.526;26.534;2024-03-29T00:30:05;98697.09;;;11.58;98.79
10618;BME280;5356;43.526;26.534;2024-03-29T00:32:31;98693.72;;;11.51;99.37
10618;BME280;5356;43.526;26.534;2024-03-29T00:34:56;98698.25;;;11.51;99.14
10618;BME280;5356;43.526;26.534;2024-03-29T00:37:23;98693.97;;;11.50;99.14
10618;BME280;5356;43.526;26.534;2024-03-29T00:39:49;98700.34;;;11.49;99.21
10618;BME280;5356;43.526;26.534;2024-03-29T00:42:14;98700.34;;;11.49;99.09
10618;BME280;5356;43.526;26.534;2024-03-29T00:44:44;98705.19;;;11.52;99.14
10618;BME280;5356;43.526;26.534;2024-03-29T00:47:10;98702.00;;;11.50;99.27
10618;BME280;5356;43.526;26.534;2024-03-29T00:49:36;98701.41;;;11.48;100.00
10618;BME280;5356;43.526;26.534;2024-03-29T00:52:03;98696.88;;;11.48;99.91
10618;BME280;5356;43.526;26.534;2024-03-29T00:54:29;98705.69;;;11.49;99.65
10618;BME280;5356;43.526;26.534;2024-03-29T00:56:54;98716.25;;;11.43;100.00
10618;BME280;5356;43.526;26.534;2024-03-29T00:59:20;98716.38;;;11.37;100.00
10618;BME280;5356;43.526;26.534;2024-03-29T01:01:45;98732.66;;;11.35;100.00
10618;BME280;5356;43.526;26.534;2024-03-29T01:04:11;98727.75;;;11.32;100.00
10618;BME280;5356;43.526;26.534;2024-03-29T01:06:37;98732.28;;;11.32;99.97
10618;BME280;5356;43.526;26.534;2024-03-29T01:09:04;98736.00;;;11.31;100.00
10618;BME280;5356;43.526;26.534;2024-03-29T01:11:30;98736.13;;;11.24;100.00
10618;BME280;5356;43.526;26.534;2024-03-29T01:13:55;98736.50;;;11.16;100.00
10618;BME280;5356;43.526;26.534;2024-03-29T01:16:21;98743.44;;;11.17;100.00
10618;BME280;5356;43.526;26.534;2024-03-29T01:18:47;98739.06;;;11.11;100.00
10618;BME280;5356;43.526;26.534;2024-03-29T01:21:13;98749.38;;;11.07;100.00
10618;BME280;5356;43.526;26.534;2024-03-29T01:23:39;98748.31;;;11.08;100.00
10618;BME280;5356;43.526;26.534;2024-03-29T01:26:05;98749.25;;;11.14;100.00
10618;BME280;5356;43.526;26.534;2024-03-29T01:28:31;98750.38;;;11.18;100.00
10618;BME280;5356;43.526;26.534;2024-03-29T01:30:57;98751.09;;;11.13;100.00
10618;BME280;5356;43.526;26.534;2024-03-29T01:33:24;98760.13;;;11.12;100.00
10618;BME280;5356;43.526;26.534;2024-03-29T01:35:49;98753.53;;;11.03;100.00
10618;BME280;5356;43.526;26.534;2024-03-29T01:38:15;98757.94;;;10.97;100.00
10618;BME280;5356;43.526;26.534;2024-03-29T01:40:40;98751.94;;;10.90;100.00
10618;BME280;5356;43.526;26.534;2024-03-29T01:43:06;98748.56;;;10.83;100.00
10618;BME280;5356;43.526;26.534;2024-03-29T01:45:35;98749.16;;;10.73;100.00
10618;BME280;5356;43.526;26.534;2024-03-29T01:48:04;98749.72;;;10.75;100.00
10618;BME280;5356;43.526;26.534;2024-03-29T01:50:29;98751.91;;;10.67;100.00
10618;BME280;5356;43.526;26.534;2024-03-29T01:52:55;98757.25;;;10.67;100.00
10618;BME280;5356;43.526;26.534;2024-03-29T01:55:21;98756.69;;;10.65;100.00
10618;BME280;5356;43.526;26.534;2024-03-29T01:57:46;98756.91;;;10.63;100.00
10618;BME280;5356;43.526;26.534;2024-03-29T02:00:12;98765.69;;;10.52;100.00
10618;BME280;5356;43.526;26.534;2024-03-29T02:02:37;98768.22;;;10.47;100.00
10618;BME280;5356;43.526;26.534;2024-03-29T02:05:03;98757.47;;;10.42;100.00
10618;BME280;5356;43.526;26.534;2024-03-29T02:07:29;98768.69;;;10.44;100.00
10618;BME280;5356;43.526;26.534;2024-03-29T02:09:55;98765.53;;;10.35;100.00
10618;BME280;5356;43.526;26.534;2024-03-29T02:12:20;98767.03;;;10.31;100.00
10618;BME280;5356;43.526;26.534;2024-03-29T02:14:46;98777.59;;;10.38;100.00
10618;BME280;5356;43.526;26.534;2024-03-29T02:17:11;98774.38;;;10.47;100.00
10618;BME280;5356;43.526;26.534;2024-03-29T02:19:37;98774.81;;;10.44;100.00
10618;BME280;5356;43.526;26.534;2024-03-29T02:22:03;98776.31;;;10.40;100.00
10618;BME280;5356;43.526;26.534;2024-03-29T02:24:32;98781.06;;;10.38;100.00
10618;BME280;5356;43.526;26.534;2024-03-29T02:26:57;98785.91;;;10.41;100.00
10618;BME280;5356;43.526;26.534;2024-03-29T02:29:24;98783.97;;;10.48;100.00
10618;BME280;5356;43.526;26.534;2024-03-29T02:31:50;98786.31;;;10.45;100.00
10618;BME280;5356;43.526;26.534;2024-03-29T02:34:15;98788.47;;;10.36;100.00
10618;BME280;5356;43.526;26.534;2024-03-29T02:36:42;98803.72;;;10.29;100.00
10618;BME280;5356;43.526;26.534;2024-03-29T02:39:09;98795.16;;;10.27;100.00
10618;BME280;5356;43.526;26.534;2024-03-29T02:41:35;98801.19;;;10.34;100.00
10618;BME280;5356;43.526;26.534;2024-03-29T02:44:00;98797.66;;;10.22;100.00
10618;BME280;5356;43.526;26.534;2024-03-29T02:46:26;98802.16;;;10.21;100.00
10618;BME280;5356;43.526;26.534;2024-03-29T02:48:51;98796.63;;;10.23;100.00
10618;BME280;5356;43.526;26.534;2024-03-29T02:51:17;98805.28;;;10.18;100.00
10618;BME280;5356;43.526;26.534;2024-03-29T02:53:43;98807.72;;;10.20;100.00
10618;BME280;5356;43.526;26.534;2024-03-29T02:56:08;98822.66;;;10.21;100.00
10618;BME280;5356;43.526;26.534;2024-03-29T02:58:36;98817.78;;;10.18;100.00
10618;BME280;5356;43.526;26.534;2024-03-29T03:01:09;98826.34;;;10.20;100.00
10618;BME280;5356;43.526;26.534;2024-03-29T03:03:35;98832.69;;;10.19;100.00
10618;BME280;5356;43.526;26.534;2024-03-29T03:06:01;98833.84;;;10.11;100.00
10618;BME280;5356;43.526;26.534;2024-03-29T03:08:28;98838.25;;;10.17;100.00
10618;BME280;5356;43.526;26.534;2024-03-29T03:11:12;98831.84;;;10.06;100.00
10618;BME280;5356;43.526;26.534;2024-03-29T03:13:37;98841.72;;;10.18;100.00
10618;BME280;5356;43.526;26.534;2024-03-29T03:16:03;98834.91;;;10.22;100.00
10618;BME280;5356;43.526;26.534;2024-03-29T03:18:29;98843.94;;;10.21;100.00
10618;BME280;5356;43.526;26.534;2024-03-29T03:20:56;98844.41;;;10.18;100.00
10618;BME280;5356;43.526;26.534;2024-03-29T03:23:23;98862.53;;;10.09;100.00
10618;BME280;5356;43.526;26.534;2024-03-29T03:25:59;98859.19;;;10.14;100.00
10618;BME280;5356;43.526;26.534;2024-03-29T03:28:25;98864.94;;;10.10;100.00
10618;BME280;5356;43.526;26.534;2024-03-29T03:30:52;98873.72;;;9.99;100.00
10618;BME280;5356;43.526;26.534;2024-03-29T03:33:18;98875.53;;;9.99;100.00
10618;BME280;5356;43.526;26.534;2024-03-29T03:35:45;98878.34;;;10.04;100.00
10618;BME280;5356;43.526;26.534;2024-03-29T03:38:10;98886.63;;;9.96;100.00
10618;BME280;5356;43.526;26.534;2024-03-29T03:40:36;98883.69;;;9.85;100.00
10618;BME280;5356;43.526;26.534;2024-03-29T03:43:03;98878.13;;;9.87;100.00
10618;BME280;5356;43.526;26.534;2024-03-29T03:45:37;98887.47;;;9.78;100.00
10618;BME280;5356;43.526;26.534;2024-03-29T03:48:10;98900.16;;;9.76;100.00
10618;BME280;5356;43.526;26.534;2024-03-29T03:50:37;98897.13;;;9.72;100.00
10618;BME280;5356;43.526;26.534;2024-03-29T03:53:03;98896.91;;;9.74;100.00
10618;BME280;5356;43.526;26.534;2024-03-29T03:55:29;98903.06;;;9.74;100.00
10618;BME280;5356;43.526;26.534;2024-03-29T03:57:54;98906.38;;;9.70;100.00
10618;BME280;5356;43.526;26.534;2024-03-29T04:00:21;98925.94;;;9.75;100.00
10618;BME280;5356;43.526;26.534;2024-03-29T04:02:48;98937.63;;;9.74;100.00
10618;BME280;5356;43.526;26.534;2024-03-29T04:05:15;98932.53;;;9.73;100.00
10618;BME280;5356;43.526;26.534;2024-03-29T04:07:41;98940.66;;;9.78;100.00
10618;BME280;5356;43.526;26.534;2024-03-29T04:10:06;98936.16;;;9.78;100.00
10618;BME280;5356;43.526;26.534;2024-03-29T04:12:32;98948.03;;;9.76;100.00
10618;BME280;5356;43.526;26.534;2024-03-29T04:14:57;98948.47;;;9.73;100.00
10618;BME280;5356;43.526;26.534;2024-03-29T04:17:23;98956.63;;;9.78;100.00
10618;BME280;5356;43.526;26.534;2024-03-29T04:19:49;98954.16;;;9.76;100.00
10618;BME280;5356;43.526;26.534;2024-03-29T04:22:14;98955.38;;;9.80;100.00
10618;BME280;5356;43.526;26.534;2024-03-29T04:24:39;98956.63;;;9.78;100.00
10618;BME280;5356;43.526;26.534;2024-03-29T04:27:07;98964.16;;;9.81;100.00
10618;BME280;5356;43.526;26.534;2024-03-29T04:29:33;98972.50;;;9.84;100.00
10618;BME280;5356;43.526;26.534;2024-03-29T04:31:58;98974.97;;;9.86;100.00
10618;BME280;5356;43.526;26.534;2024-03-29T04:34:24;98974.16;;;9.85;100.00
10618;BME280;5356;43.526;26.534;2024-03-29T04:36:49;98983.09;;;9.91;100.00
10618;BME280;5356;43.526;26.534;2024-03-29T04:39:15;98978.34;;;9.93;100.00
10618;BME280;5356;43.526;26.534;2024-03-29T04:41:40;98990.41;;;9.96;100.00
10618;BME280;5356;43.526;26.534;2024-03-29T04:44:06;98986.34;;;9.93;100.00
10618;BME280;5356;43.526;26.534;2024-03-29T04:46:33;99000.41;;;10.00;100.00
10618;BME280;5356;43.526;26.534;2024-03-29T04:48:59;99002.97;;;10.07;100.00
10618;BME280;5356;43.526;26.534;2024-03-29T04:51:24;99014.16;;;10.16;100.00
10618;BME280;5356;43.526;26.534;2024-03-29T04:53:50;99016.59;;;10.17;100.00
10618;BME280;5356;43.526;26.534;2024-03-29T04:56:15;99019.63;;;10.21;100.00
10618;BME280;5356;43.526;26.534;2024-03-29T04:58:41;99027.41;;;10.22;100.00
10618;BME280;5356;43.526;26.534;2024-03-29T05:01:07;99028.41;;;10.28;100.00
10618;BME280;5356;43.526;26.534;2024-03-29T05:03:32;99024.50;;;10.30;100.00
10618;BME280;5356;43.526;26.534;2024-03-29T05:05:58;99035.25;;;10.36;100.00
10618;BME280;5356;43.526;26.534;2024-03-29T05:08:23;99040.47;;;10.30;100.00
10618;BME280;5356;43.526;26.534;2024-03-29T05:10:49;99045.25;;;10.40;100.00
10618;BME280;5356;43.526;26.534;2024-03-29T05:13:16;99044.28;;;10.53;100.00
10618;BME280;5356;43.526;26.534;2024-03-29T05:15:42;99046.59;;;10.68;100.00
10618;BME280;5356;43.526;26.534;2024-03-29T05:18:07;99048.34;;;10.74;100.00
10618;BME280;5356;43.526;26.534;2024-03-29T05:20:33;99040.66;;;10.84;100.00
10618;BME280;5356;43.526;26.534;2024-03-29T05:22:59;99049.50;;;10.96;100.00
10618;BME280;5356;43.526;26.534;2024-03-29T05:25:25;99048.50;;;11.09;100.00
10618;BME280;5356;43.526;26.534;2024-03-29T05:27:50;99056.97;;;11.18;100.00
10618;BME280;5356;43.526;26.534;2024-03-29T05:30:16;99047.06;;;11.25;100.00
10618;BME280;5356;43.526;26.534;2024-03-29T05:32:42;99054.28;;;11.36;100.00
10618;BME280;5356;43.526;26.534;2024-03-29T05:35:08;99055.91;;;11.49;100.00
10618;BME280;5356;43.526;26.534;2024-03-29T05:37:35;99051.53;;;11.55;100.00
10618;BME280;5356;43.526;26.534;2024-03-29T05:40:00;99047.72;;;11.62;100.00
10618;BME280;5356;43.526;26.534;2024-03-29T05:42:31;99053.66;;;11.76;100.00
10618;BME280;5356;43.526;26.534;2024-03-29T05:44:56;99051.81;;;11.88;100.00
10618;BME280;5356;43.526;26.534;2024-03-29T05:47:22;99054.28;;;12.13;100.00
10618;BME280;5356;43.526;26.534;2024-03-29T05:49:49;99052.66;;;12.24;100.00
10618;BME280;5356;43.526;26.534;2024-03-29T05:52:15;99066.22;;;12.23;100.00
10618;BME280;5356;43.526;26.534;2024-03-29T05:54:41;99066.69;;;12.31;100.00
10618;BME280;5356;43.526;26.534;2024-03-29T05:57:06;99060.97;;;12.40;100.00
10618;BME280;5356;43.526;26.534;2024-03-29T05:59:33;99065.88;;;12.43;100.00
10618;BME280;5356;43.526;26.534;2024-03-29T06:01:58;99069.56;;;12.53;100.00
10618;BME280;5356;43.526;26.534;2024-03-29T06:04:24;99061.78;;;12.52;100.00
10618;BME280;5356;43.526;26.534;2024-03-29T06:07:00;99071.66;;;12.63;100.00
10618;BME280;5356;43.526;26.534;2024-03-29T06:09:26;99083.91;;;12.76;100.00
10618;BME280;5356;43.526;26.534;2024-03-29T06:11:54;99084.13;;;12.86;100.00
10618;BME280;5356;43.526;26.534;2024-03-29T06:14:19;99079.44;;;12.93;100.00
10618;BME280;5356;43.526;26.534;2024-03-29T06:17:04;99078.38;;;13.06;100.00
10618;BME280;5356;43.526;26.534;2024-03-29T06:19:47;99085.88;;;13.21;100.00
10618;BME280;5356;43.526;26.534;2024-03-29T06:22:13;99081.66;;;13.37;100.00
10618;BME280;5356;43.526;26.534;2024-03-29T06:24:39;99082.88;;;13.46;100.00
10618;BME280;5356;43.526;26.534;2024-03-29T06:27:05;99085.16;;;13.54;100.00
10618;BME280;5356;43.526;26.534;2024-03-29T06:29:31;99076.88;;;13.73;100.00
10618;BME280;5356;43.526;26.534;2024-03-29T06:31:57;99080.47;;;13.78;100.00
10618;BME280;5356;43.526;26.534;2024-03-29T06:34:22;99086.72;;;13.84;100.00
10618;BME280;5356;43.526;26.534;2024-03-29T06:36:47;99092.22;;;14.11;100.00
10618;BME280;5356;43.526;26.534;2024-03-29T06:39:13;99090.59;;;14.27;100.00
10618;BME280;5356;43.526;26.534;2024-03-29T06:41:39;99095.84;;;14.38;100.00
10618;BME280;5356;43.526;26.534;2024-03-29T06:44:04;99084.94;;;14.62;100.00
10618;BME280;5356;43.526;26.534;2024-03-29T06:46:29;99093.00;;;14.84;100.00
10618;BME280;5356;43.526;26.534;2024-03-29T06:48:55;99093.88;;;15.12;100.00
10618;BME280;5356;43.526;26.534;2024-03-29T06:51:20;99096.69;;;15.27;100.00
10618;BME280;5356;43.526;26.534;2024-03-29T06:53:48;99098.66;;;15.37;100.00
10618;BME280;5356;43.526;26.534;2024-03-29T06:56:14;99100.34;;;15.70;100.00
10618;BME280;5356;43.526;26.534;2024-03-29T06:58:41;99082.56;;;15.96;100.00
10618;BME280;5356;43.526;26.534;2024-03-29T07:01:06;99089.47;;;16.24;100.00
10618;BME280;5356;43.526;26.534;2024-03-29T07:03:32;99089.41;;;16.56;98.48
10618;BME280;5356;43.526;26.534;2024-03-29T07:05:58;99092.25;;;16.82;95.57
10618;BME280;5356;43.526;26.534;2024-03-29T07:08:23;99093.72;;;17.10;94.91
10618;BME280;5356;43.526;26.534;2024-03-29T07:10:57;99104.25;;;17.37;92.85
10618;BME280;5356;43.526;26.534;2024-03-29T07:13:28;99096.75;;;17.55;89.80
10618;BME280;5356;43.526;26.534;2024-03-29T07:15:54;99103.22;;;17.69;89.33
10618;BME280;5356;43.526;26.534;2024-03-29T07:18:40;99104.91;;;17.90;85.71
10618;BME280;5356;43.526;26.534;2024-03-29T07:21:49;99099.22;;;18.07;80.44
10618;BME280;5356;43.526;26.534;2024-03-29T07:28:05;99092.41;;;18.51;72.39
10618;BME280;5356;43.526;26.534;2024-03-29T07:31:23;99096.94;;;18.81;72.11
10618;BME280;5356;43.526;26.534;2024-03-29T07:47:39;99095.31;;;19.79;57.02
10618;BME280;5356;43.526;26.534;2024-03-29T07:50:05;99101.66;;;19.99;53.72
10618;BME280;5356;43.526;26.534;2024-03-29T07:52:33;99097.53;;;20.01;53.19
10618;BME280;5356;43.526;26.534;2024-03-29T07:54:58;99095.56;;;20.12;53.18
10618;BME280;5356;43.526;26.534;2024-03-29T07:57:25;99112.78;;;20.21;52.03
10618;BME280;5356;43.526;26.534;2024-03-29T07:59:50;99096.22;;;20.28;50.75
10618;BME280;5356;43.526;26.534;2024-03-29T08:02:17;99105.56;;;20.40;50.78
10618;BME280;5356;43.526;26.534;2024-03-29T08:04:42;99096.81;;;20.49;50.26
10618;BME280;5356;43.526;26.534;2024-03-29T08:07:10;99097.06;;;20.52;49.68
10618;BME280;5356;43.526;26.534;2024-03-29T08:09:37;99100.31;;;20.54;49.43
10618;BME280;5356;43.526;26.534;2024-03-29T08:12:05;99095.59;;;20.65;49.01
10618;BME280;5356;43.526;26.534;2024-03-29T08:14:30;99095.25;;;20.72;48.29
10618;BME280;5356;43.526;26.534;2024-03-29T08:16:55;99101.72;;;20.76;48.26
10618;BME280;5356;43.526;26.534;2024-03-29T08:19:21;99110.00;;;20.84;48.27
10618;BME280;5356;43.526;26.534;2024-03-29T08:21:46;99102.66;;;20.85;47.91
10618;BME280;5356;43.526;26.534;2024-03-29T08:24:12;99104.97;;;20.97;48.07
10618;BME280;5356;43.526;26.534;2024-03-29T08:26:37;99097.50;;;21.07;48.16
10618;BME280;5356;43.526;26.534;2024-03-29T08:29:03;99102.16;;;21.26;48.29
10618;BME280;5356;43.526;26.534;2024-03-29T08:31:28;99118.38;;;21.50;48.07
10618;BME280;5356;43.526;26.534;2024-03-29T08:33:54;99114.94;;;21.63;47.90
10618;BME280;5356;43.526;26.534;2024-03-29T08:36:20;99115.94;;;21.67;47.44
10618;BME280;5356;43.526;26.534;2024-03-29T08:38:45;99121.88;;;21.69;47.89
10618;BME280;5356;43.526;26.534;2024-03-29T08:41:12;99124.59;;;21.88;48.34
10618;BME280;5356;43.526;26.534;2024-03-29T08:43:38;99123.50;;;22.03;48.14
10618;BME280;5356;43.526;26.534;2024-03-29T08:46:03;99123.03;;;22.15;47.15
10618;BME280;5356;43.526;26.534;2024-03-29T08:48:29;99129.06;;;22.12;46.83
10618;BME280;5356;43.526;26.534;2024-03-29T08:50:55;99130.38;;;22.14;46.83
10618;BME280;5356;43.526;26.534;2024-03-29T08:53:20;99110.53;;;22.33;46.40
10618;BME280;5356;43.526;26.534;2024-03-29T08:55:50;99113.16;;;22.38;46.56
10618;BME280;5356;43.526;26.534;2024-03-29T08:58:16;99119.63;;;22.42;45.86
10618;BME280;5356;43.526;26.534;2024-03-29T09:00:55;99112.16;;;22.34;45.20
10618;BME280;5356;43.526;26.534;2024-03-29T09:03:22;99112.34;;;22.24;44.99
10618;BME280;5356;43.526;26.534;2024-03-29T09:05:48;99119.78;;;22.32;44.89
10618;BME280;5356;43.526;26.534;2024-03-29T09:08:14;99104.22;;;22.37;45.00
10618;BME280;5356;43.526;26.534;2024-03-29T09:10:40;99110.44;;;22.38;46.54
10618;BME280;5356;43.526;26.534;2024-03-29T09:13:06;99106.13;;;22.37;45.99
10618;BME280;5356;43.526;26.534;2024-03-29T09:15:33;99116.69;;;22.38;44.78
10618;BME280;5356;43.526;26.534;2024-03-29T09:17:58;99104.13;;;22.42;44.61
10618;BME280;5356;43.526;26.534;2024-03-29T09:20:28;99106.75;;;22.34;44.27
10618;BME280;5356;43.526;26.534;2024-03-29T09:22:53;99100.81;;;22.46;44.92
10618;BME280;5356;43.526;26.534;2024-03-29T09:25:19;99104.75;;;22.53;44.82
10618;BME280;5356;43.526;26.534;2024-03-29T09:27:47;99094.97;;;22.52;44.76
10618;BME280;5356;43.526;26.534;2024-03-29T09:30:14;99103.63;;;22.54;45.30
10618;BME280;5356;43.526;26.534;2024-03-29T09:32:40;99098.91;;;22.60;44.87
10618;BME280;5356;43.526;26.534;2024-03-29T09:35:06;99121.94;;;22.62;45.04
10618;BME280;5356;43.526;26.534;2024-03-29T09:37:32;99114.69;;;22.72;45.45
10618;BME280;5356;43.526;26.534;2024-03-29T09:40:04;99112.41;;;22.79;44.96
10618;BME280;5356;43.526;26.534;2024-03-29T09:42:32;99118.81;;;22.83;45.17
10618;BME280;5356;43.526;26.534;2024-03-29T09:45:08;99109.47;;;22.89;44.58
10618;BME280;5356;43.526;26.534;2024-03-29T09:47:42;99119.72;;;22.92;44.61
10618;BME280;5356;43.526;26.534;2024-03-29T09:50:11;99121.25;;;23.12;44.97
10618;BME280;5356;43.526;26.534;2024-03-29T09:52:39;99112.56;;;23.24;44.76
10618;BME280;5356;43.526;26.534;2024-03-29T09:55:06;99100.50;;;23.16;44.38
10618;BME280;5356;43.526;26.534;2024-03-29T09:57:32;99105.72;;;23.13;44.67
10618;BME280;5356;43.526;26.534;2024-03-29T09:59:58;99087.63;;;23.22;43.68
10618;BME280;5356;43.526;26.534;2024-03-29T10:02:28;99083.16;;;23.26;43.55
10618;BME280;5356;43.526;26.534;2024-03-29T10:04:57;99090.31;;;23.36;42.70
10618;BME280;5356;43.526;26.534;2024-03-29T10:07:23;99088.75;;;23.43;42.52
10618;BME280;5356;43.526;26.534;2024-03-29T10:09:50;99079.88;;;23.51;42.45
10618;BME280;5356;43.526;26.534;2024-03-29T10:12:16;99071.88;;;23.55;42.47
10618;BME280;5356;43.526;26.534;2024-03-29T10:14:45;99069.16;;;23.55;42.59
10618;BME280;5356;43.526;26.534;2024-03-29T10:17:18;99078.25;;;23.50;41.25
10618;BME280;5356;43.526;26.534;2024-03-29T10:19:44;99067.56;;;23.54;41.43
10618;BME280;5356;43.526;26.534;2024-03-29T10:22:10;99084.63;;;23.68;41.67
10618;BME280;5356;43.526;26.534;2024-03-29T10:24:36;99066.94;;;23.71;41.08
10618;BME280;5356;43.526;26.534;2024-03-29T10:27:03;99071.50;;;23.84;41.09
10618;BME280;5356;43.526;26.534;2024-03-29T10:29:29;99063.91;;;23.95;40.80
10618;BME280;5356;43.526;26.534;2024-03-29T10:31:57;99069.69;;;24.02;40.86
10618;BME280;5356;43.526;26.534;2024-03-29T10:34:24;99072.41;;;24.02;41.11
10618;BME280;5356;43.526;26.534;2024-03-29T10:36:50;99080.00;;;24.14;41.07
10618;BME280;5356;43.526;26.534;2024-03-29T10:39:16;99087.06;;;24.15;40.77
10618;BME280;5356;43.526;26.534;2024-03-29T10:41:43;99084.53;;;24.27;41.05
10618;BME280;5356;43.526;26.534;2024-03-29T10:44:10;99091.59;;;24.28;40.54
10618;BME280;5356;43.526;26.534;2024-03-29T10:46:43;99082.47;;;24.24;39.97
10618;BME280;5356;43.526;26.534;2024-03-29T10:49:14;99088.91;;;24.37;40.31
10618;BME280;5356;43.526;26.534;2024-03-29T10:51:42;99077.72;;;24.38;39.94
10618;BME280;5356;43.526;26.534;2024-03-29T10:54:09;99085.72;;;24.35;39.37
10618;BME280;5356;43.526;26.534;2024-03-29T10:56:36;99088.19;;;24.45;40.07
10618;BME280;5356;43.526;26.534;2024-03-29T10:59:41;99082.53;;;24.41;38.90
10618;BME280;5356;43.526;26.534;2024-03-29T11:02:29;99092.75;;;24.36;39.10
10618;BME280;5356;43.526;26.534;2024-03-29T11:05:00;99089.47;;;24.48;39.18
10618;BME280;5356;43.526;26.534;2024-03-29T11:07:31;99093.88;;;24.66;39.27
10618;BME280;5356;43.526;26.534;2024-03-29T11:10:00;99103.34;;;24.69;38.42
10618;BME280;5356;43.526;26.534;2024-03-29T11:12:30;99104.75;;;24.57;38.56
10618;BME280;5356;43.526;26.534;2024-03-29T11:15:05;99084.28;;;24.69;38.29
10618;BME280;5356;43.526;26.534;2024-03-29T11:17:35;99089.91;;;24.81;37.52
10618;BME280;5356;43.526;26.534;2024-03-29T11:20:01;99100.03;;;24.89;37.43
10618;BME280;5356;43.526;26.534;2024-03-29T11:22:35;99096.97;;;24.91;37.62
10618;BME280;5356;43.526;26.534;2024-03-29T11:25:03;99096.34;;;25.02;37.02
10618;BME280;5356;43.526;26.534;2024-03-29T11:27:29;99088.66;;;24.87;36.66
10618;BME280;5356;43.526;26.534;2024-03-29T11:36:29;99081.94;;;25.02;37.30
10618;BME280;5356;43.526;26.534;2024-03-29T11:39:06;99070.88;;;24.98;36.93
10618;BME280;5356;43.526;26.534;2024-03-29T11:41:49;99084.19;;;25.00;36.42
10618;BME280;5356;43.526;26.534;2024-03-29T11:44:27;99076.47;;;25.02;35.96
10618;BME280;5356;43.526;26.534;2024-03-29T11:46:58;99084.66;;;25.10;37.47
10618;BME280;5356;43.526;26.534;2024-03-29T11:49:30;99081.38;;;25.22;36.47
10618;BME280;5356;43.526;26.534;2024-03-29T11:52:07;99083.13;;;25.18;36.30
10618;BME280;5356;43.526;26.534;2024-03-29T11:54:47;99081.38;;;25.22;37.51
10618;BME280;5356;43.526;26.534;2024-03-29T11:57:27;99091.66;;;25.25;37.83
10618;BME280;5356;43.526;26.534;2024-03-29T12:00:00;99085.53;;;25.20;37.55
10618;BME280;5356;43.526;26.534;2024-03-29T12:02:28;99080.09;;;25.28;37.54
10618;BME280;5356;43.526;26.534;2024-03-29T12:05:08;99081.69;;;25.47;37.77
10618;BME280;5356;43.526;26.534;2024-03-29T12:07:57;99086.50;;;25.59;37.68
10618;BME280;5356;43.526;26.534;2024-03-29T12:10:47;99088.78;;;25.48;37.24
10618;BME280;5356;43.526;26.534;2024-03-29T12:13:35;99092.44;;;25.43;36.29
10618;BME280;5356;43.526;26.534;2024-03-29T12:16:42;99074.31;;;25.39;35.95
10618;BME280;5356;43.526;26.534;2024-03-29T12:22:35;99077.22;;;25.51;36.04
10618;BME280;5356;43.526;26.534;2024-03-29T12:25:50;99074.00;;;25.49;36.11
10618;BME280;5356;43.526;26.534;2024-03-29T12:28:39;99076.22;;;25.38;35.97
10618;BME280;5356;43.526;26.534;2024-03-29T12:34:20;99075.41;;;25.72;36.43
10618;BME280;5356;43.526;26.534;2024-03-29T12:37:13;99079.44;;;25.84;36.30
10618;BME280;5356;43.526;26.534;2024-03-29T12:40:12;99078.00;;;25.60;35.33
10618;BME280;5356;43.526;26.534;2024-03-29T12:42:55;99084.38;;;25.82;35.49
10618;BME280;5356;43.526;26.534;2024-03-29T12:45:33;99081.84;;;25.76;35.08
10618;BME280;5356;43.526;26.534;2024-03-29T12:48:02;99085.22;;;25.91;34.70
10618;BME280;5356;43.526;26.534;2024-03-29T12:50:32;99076.22;;;25.99;34.26
10618;BME280;5356;43.526;26.534;2024-03-29T12:53:14;99072.03;;;25.93;34.12
10618;BME280;5356;43.526;26.534;2024-03-29T12:55:42;99062.41;;;25.95;34.63
10618;BME280;5356;43.526;26.534;2024-03-29T12:58:24;99064.94;;;26.01;34.60
10618;BME280;5356;43.526;26.534;2024-03-29T13:03:47;99053.41;;;25.95;34.62
10618;BME280;5356;43.526;26.534;2024-03-29T13:06:13;99050.38;;;25.96;34.86
10618;BME280;5356;43.526;26.534;2024-03-29T13:08:38;99054.78;;;26.27;34.86
10618;BME280;5356;43.526;26.534;2024-03-29T13:11:05;99053.66;;;26.19;34.56
10618;BME280;5356;43.526;26.534;2024-03-29T13:13:31;99062.69;;;26.11;34.55
10618;BME280;5356;43.526;26.534;2024-03-29T13:15:56;99067.31;;;26.19;34.49
10618;BME280;5356;43.526;26.534;2024-03-29T13:18:21;99059.78;;;26.16;34.45
10618;BME280;5356;43.526;26.534;2024-03-29T13:20:47;99076.75;;;26.31;34.68
10618;BME280;5356;43.526;26.534;2024-03-29T13:23:12;99064.97;;;26.48;33.65
10618;BME280;5356;43.526;26.534;2024-03-29T13:25:39;99072.66;;;26.54;33.63
10618;BME280;5356;43.526;26.534;2024-03-29T13:28:04;99065.19;;;26.72;33.92
10618;BME280;5356;43.526;26.534;2024-03-29T13:30:32;99048.38;;;26.61;33.71
10618;BME280;5356;43.526;26.534;2024-03-29T13:32:58;99058.66;;;26.64;33.67
10618;BME280;5356;43.526;26.534;2024-03-29T13:35:23;99050.63;;;26.59;33.88